createdAt,value
2022-11-24T00:00:26.728Z,1.77
2022-11-24T00:03:13.751Z,1.80
2022-11-24T00:06:07.245Z,1.90
2022-11-24T00:08:55.243Z,2.10
2022-11-24T00:11:42.177Z,2.10
2022-11-24T00:14:29.150Z,1.90
2022-11-24T00:17:16.112Z,1.93
2022-11-24T00:20:03.640Z,1.50
2022-11-24T00:22:50.633Z,1.50
2022-11-24T00:25:37.593Z,2.07
2022-11-24T00:28:24.742Z,1.80
2022-11-24T00:31:20.289Z,1.97
2022-11-24T00:34:11.121Z,1.93
2022-11-24T00:36:58.123Z,2.20
2022-11-24T00:39:45.078Z,2.27
2022-11-24T00:42:32.054Z,2.27
2022-11-24T00:45:19.047Z,2.63
2022-11-24T00:48:06.141Z,2.53
2022-11-24T00:51:01.648Z,2.10
2022-11-24T00:53:48.649Z,2.27
2022-11-24T00:56:35.594Z,2.60
2022-11-24T00:59:22.706Z,2.67
2022-11-24T01:02:11.889Z,2.30
2022-11-24T01:04:59.005Z,3.20
2022-11-24T01:07:45.999Z,2.30
2022-11-24T01:10:33.747Z,2.43
2022-11-24T01:13:20.732Z,2.20
2022-11-24T01:16:18.128Z,2.30
2022-11-24T01:19:05.133Z,2.50
2022-11-24T01:21:52.378Z,2.27
2022-11-24T01:24:39.681Z,2.47
2022-11-24T01:27:26.638Z,2.30
2022-11-24T01:30:13.690Z,2.13
2022-11-24T01:33:00.680Z,2.40
2022-11-24T01:35:47.675Z,2.70
2022-11-24T01:38:35.956Z,3.60
2022-11-24T01:41:25.221Z,2.00
2022-11-24T01:44:27.098Z,3.40
2022-11-24T01:47:26.076Z,1.70
2022-11-24T01:50:16.537Z,2.67
2022-11-24T01:53:04.934Z,2.50
2022-11-24T01:55:52.710Z,3.93
2022-11-24T01:58:42.541Z,2.17
2022-11-24T02:01:31.442Z,2.33
2022-11-24T02:04:23.841Z,2.83
2022-11-24T02:07:12.594Z,2.30
2022-11-24T02:10:04.630Z,3.23
2022-11-24T02:12:54.717Z,4.30
2022-11-24T02:15:42.233Z,2.53
2022-11-24T02:18:29.274Z,3.00
2022-11-24T02:21:16.948Z,4.17
2022-11-24T02:24:22.331Z,4.00
2022-11-24T02:27:10.088Z,2.50
2022-11-24T02:29:57.188Z,4.03
2022-11-24T02:32:44.228Z,4.17
2022-11-24T02:35:32.175Z,3.67
2022-11-24T02:38:19.549Z,2.47
2022-11-24T02:41:11.260Z,4.93
2022-11-24T02:44:02.010Z,4.33
2022-11-24T02:46:49.025Z,3.13
2022-11-24T02:49:36.565Z,4.07
2022-11-24T02:52:23.697Z,3.07
2022-11-24T02:55:10.704Z,3.40
2022-11-24T02:57:57.729Z,4.47
2022-11-24T03:00:44.695Z,2.00
2022-11-24T03:03:31.826Z,2.90
2022-11-24T03:06:18.770Z,4.20
2022-11-24T03:09:06.556Z,2.77
2022-11-24T03:11:53.592Z,2.17
2022-11-24T03:14:40.577Z,2.07
2022-11-24T03:17:27.601Z,3.13
2022-11-24T03:20:14.699Z,2.17
2022-11-24T03:23:01.701Z,2.03
2022-11-24T03:25:48.676Z,1.80
2022-11-24T03:28:35.839Z,1.73
2022-11-24T03:31:23.469Z,2.50
2022-11-24T03:34:10.630Z,2.83
2022-11-24T03:36:58.352Z,2.40
2022-11-24T03:39:45.316Z,2.27
2022-11-24T03:42:32.315Z,4.37
2022-11-24T03:48:26.271Z,3.40
2022-11-24T03:51:13.313Z,3.53
2022-11-24T03:54:00.251Z,3.30
2022-11-24T03:56:47.528Z,2.43
2022-11-24T03:59:34.500Z,2.57
2022-11-24T04:02:21.474Z,2.10
2022-11-24T04:05:09.521Z,1.50
2022-11-24T04:07:57.417Z,3.20
2022-11-24T04:10:44.484Z,1.73
2022-11-24T04:13:31.445Z,2.43
2022-11-24T04:16:18.459Z,2.87
2022-11-24T04:19:06.225Z,3.23
2022-11-24T04:21:53.192Z,1.77
2022-11-24T04:24:40.194Z,1.80
2022-11-24T04:27:27.254Z,1.77
2022-11-24T04:30:14.202Z,2.53
2022-11-24T04:33:01.173Z,1.40
2022-11-24T04:35:48.122Z,4.33
2022-11-24T04:39:24.036Z,2.07
2022-11-24T04:41:42.330Z,1.83
2022-11-24T04:44:29.690Z,4.13
2022-11-24T04:47:20.296Z,2.57
2022-11-24T04:50:07.725Z,1.53
2022-11-24T04:52:54.848Z,2.00
2022-11-24T04:55:41.835Z,3.43
2022-11-24T04:58:28.810Z,2.20
2022-11-24T05:01:15.831Z,1.67
2022-11-24T05:04:02.911Z,2.80
2022-11-24T05:06:50.173Z,3.30
2022-11-24T05:09:59.612Z,2.10
2022-11-24T05:12:55.218Z,2.97
2022-11-24T05:15:42.289Z,3.03
2022-11-24T05:18:29.297Z,3.10
2022-11-24T05:21:16.439Z,3.10
2022-11-24T05:24:03.668Z,2.60
2022-11-24T05:26:50.648Z,3.13
2022-11-24T05:29:37.792Z,2.13
2022-11-24T05:32:25.247Z,1.97
2022-11-24T05:35:14.218Z,2.33
2022-11-24T05:38:01.826Z,2.77
2022-11-24T05:40:49.172Z,2.67
2022-11-24T05:43:36.226Z,2.70
2022-11-24T05:46:23.261Z,2.50
2022-11-24T05:49:10.576Z,3.10
2022-11-24T05:51:57.581Z,1.50
2022-11-24T05:54:45.065Z,1.50
2022-11-24T05:57:32.564Z,1.63
2022-11-24T06:00:20.182Z,2.57
2022-11-24T06:03:07.553Z,3.80
2022-11-24T06:05:54.664Z,3.40
2022-11-24T06:08:41.653Z,1.90
2022-11-24T06:11:28.798Z,1.90
2022-11-24T06:14:15.895Z,3.50
2022-11-24T06:17:03.115Z,2.67
2022-11-24T06:19:51.642Z,3.50
2022-11-24T06:22:38.677Z,2.67
2022-11-24T06:25:26.292Z,4.50
2022-11-24T06:28:13.405Z,3.63
2022-11-24T06:31:04.965Z,1.77
2022-11-24T06:33:52.632Z,3.20
2022-11-24T06:36:40.573Z,1.43
2022-11-24T06:39:28.188Z,1.87
2022-11-24T06:42:19.004Z,1.50
2022-11-24T06:45:09.462Z,2.50
2022-11-24T06:47:57.020Z,1.90
2022-11-24T06:50:44.044Z,2.77
2022-11-24T06:53:32.668Z,2.20
2022-11-24T06:56:20.888Z,2.20
2022-11-24T06:59:08.016Z,2.07
2022-11-24T07:01:54.996Z,3.97
2022-11-24T07:04:42.115Z,1.67
2022-11-24T07:07:29.551Z,2.30
2022-11-24T07:10:17.570Z,0.90
2022-11-24T07:13:08.483Z,1.40
2022-11-24T07:15:55.554Z,1.10
2022-11-24T07:18:44.257Z,1.50
2022-11-24T07:21:31.290Z,1.97
2022-11-24T07:24:18.925Z,2.07
2022-11-24T07:27:05.972Z,1.77
2022-11-24T07:29:53.021Z,1.37
2022-11-24T07:32:39.995Z,1.23
2022-11-24T07:35:27.777Z,1.13
2022-11-24T07:38:14.851Z,1.27
2022-11-24T07:41:08.332Z,2.80
2022-11-24T07:43:55.932Z,1.40
2022-11-24T07:46:43.509Z,1.20
2022-11-24T07:49:30.489Z,1.60
2022-11-24T07:52:17.491Z,3.03
2022-11-24T07:55:05.574Z,2.57
2022-11-24T07:57:52.569Z,1.27
2022-11-24T08:00:39.557Z,2.33
2022-11-24T08:03:26.809Z,1.30
2022-11-24T08:06:24.428Z,1.40
2022-11-24T08:09:13.440Z,1.77
2022-11-24T08:12:00.430Z,1.10
2022-11-24T08:14:49.465Z,1.67
2022-11-24T08:17:36.953Z,2.77
2022-11-24T08:20:24.237Z,2.10
2022-11-24T08:23:11.362Z,2.60
2022-11-24T08:26:04.444Z,1.50
2022-11-24T08:28:54.931Z,1.80
2022-11-24T08:31:42.018Z,1.87
2022-11-24T08:34:29.455Z,2.03
2022-11-24T08:37:16.543Z,2.90
2022-11-24T08:40:04.315Z,2.20
2022-11-24T08:42:52.973Z,2.50
2022-11-24T08:45:41.886Z,5.30
2022-11-24T08:48:30.261Z,2.27
2022-11-24T08:51:20.483Z,2.40
2022-11-24T08:54:10.356Z,3.03
2022-11-24T08:56:57.578Z,3.30
2022-11-24T08:59:46.249Z,4.80
2022-11-24T09:02:33.709Z,5.20
2022-11-24T09:05:50.022Z,4.23
2022-11-24T09:08:30.585Z,3.30
2022-11-24T09:11:18.378Z,3.27
2022-11-24T09:14:05.419Z,4.23
2022-11-24T09:16:52.453Z,5.87
2022-11-24T09:19:39.519Z,5.37
2022-11-24T09:22:26.875Z,3.57
2022-11-24T09:25:15.083Z,3.43
2022-11-24T09:28:02.666Z,3.37
2022-11-24T09:30:50.283Z,3.17
2022-11-24T09:33:39.412Z,2.37
2022-11-24T09:36:27.195Z,3.10
2022-11-24T09:39:14.264Z,2.77
2022-11-24T09:42:09.757Z,6.07
2022-11-24T09:45:26.275Z,4.50
2022-11-24T09:48:27.504Z,4.33
2022-11-24T09:51:15.538Z,2.87
2022-11-24T09:54:13.661Z,4.13
2022-11-24T09:57:03.878Z,3.03
2022-11-24T09:59:50.892Z,7.00
2022-11-24T10:02:37.893Z,7.03
2022-11-24T10:05:27.910Z,9.33
2022-11-24T10:08:39.632Z,5.03
2022-11-24T10:11:38.027Z,5.43
2022-11-24T10:15:03.036Z,6.20
2022-11-24T10:18:19.925Z,4.50
2022-11-24T10:21:18.777Z,4.87
2022-11-24T10:24:36.832Z,4.43
2022-11-24T10:27:32.604Z,5.13
2022-11-24T10:30:22.475Z,5.17
2022-11-24T10:33:30.368Z,3.07
2022-11-24T10:36:32.529Z,5.13
2022-11-24T10:39:28.635Z,2.07
2022-11-24T10:42:20.441Z,2.47
2022-11-24T10:45:10.461Z,4.90
2022-11-24T10:47:58.611Z,4.53
2022-11-24T10:50:45.729Z,4.27
2022-11-24T10:53:35.499Z,5.23
2022-11-24T10:56:22.530Z,3.37
2022-11-24T10:59:24.699Z,6.23
2022-11-24T11:02:28.557Z,4.10
2022-11-24T11:05:42.293Z,6.00
2022-11-24T11:08:31.637Z,6.60
2022-11-24T11:11:27.252Z,2.30
2022-11-24T11:14:31.002Z,3.33
2022-11-24T11:17:38.901Z,3.17
2022-11-24T11:20:30.349Z,2.47
2022-11-24T11:23:34.748Z,3.93
2022-11-24T11:26:24.765Z,1.23
2022-11-24T11:35:35.203Z,1.10
2022-11-24T11:38:22.300Z,4.30
2022-11-24T11:41:19.905Z,1.53
2022-11-24T11:44:22.564Z,1.53
2022-11-24T11:47:43.345Z,2.00
2022-11-24T11:51:21.621Z,1.20
2022-11-24T11:54:25.897Z,1.93
2022-11-24T11:57:45.682Z,2.67
2022-11-24T12:00:38.140Z,1.30
2022-11-24T12:03:43.636Z,0.97
2022-11-24T12:06:59.873Z,3.57
2022-11-24T12:10:08.312Z,1.63
2022-11-24T12:13:21.629Z,3.07
2022-11-24T12:16:33.299Z,3.73
2022-11-24T12:19:33.166Z,2.17
2022-11-24T12:22:50.124Z,3.00
2022-11-24T12:25:42.293Z,1.33
2022-11-24T12:28:57.784Z,2.37
2022-11-24T12:32:09.589Z,2.20
2022-11-24T12:35:08.958Z,1.93
2022-11-24T12:38:09.465Z,3.47
2022-11-24T12:45:08.881Z,1.57
2022-11-24T12:48:03.637Z,2.17
2022-11-24T12:50:54.753Z,3.90
2022-11-24T12:53:44.197Z,4.63
2022-11-24T12:56:57.273Z,3.57
2022-11-24T13:00:03.076Z,6.17
2022-11-24T13:03:01.335Z,30.30
2022-11-24T13:05:58.807Z,23.87
2022-11-24T13:08:46.048Z,12.17
2022-11-24T13:11:40.247Z,5.17
2022-11-24T13:14:37.811Z,3.70
2022-11-24T13:17:47.589Z,2.83
2022-11-24T13:20:40.483Z,2.30
2022-11-24T13:23:29.054Z,2.00
2022-11-24T13:26:29.929Z,1.97
2022-11-24T13:29:39.462Z,2.67
2022-11-24T13:32:45.733Z,3.03
2022-11-24T13:35:32.737Z,1.70
2022-11-24T13:38:38.560Z,2.17
2022-11-24T13:41:31.594Z,2.07
2022-11-24T13:44:24.210Z,2.83
2022-11-24T13:47:31.245Z,1.70
2022-11-24T13:50:22.332Z,1.80
2022-11-24T13:53:15.856Z,2.77
2022-11-24T13:56:02.795Z,1.43
2022-11-24T13:58:59.870Z,2.00
2022-11-24T14:01:57.133Z,1.03
2022-11-24T14:04:44.984Z,1.30
2022-11-24T14:07:32.314Z,1.20
2022-11-24T14:10:30.129Z,1.80
2022-11-24T14:13:23.322Z,2.20
2022-11-24T14:16:10.564Z,3.30
2022-11-24T14:19:09.984Z,1.33
2022-11-24T14:21:57.038Z,3.73
2022-11-24T14:24:45.573Z,3.33
2022-11-24T14:27:35.756Z,3.00
2022-11-24T14:30:24.602Z,3.53
2022-11-24T14:33:16.605Z,3.30
2022-11-24T14:36:03.852Z,2.47
2022-11-24T14:38:50.837Z,2.13
2022-11-24T14:41:37.941Z,2.53
2022-11-24T14:44:31.619Z,1.90
2022-11-24T14:47:25.708Z,1.77
2022-11-24T14:50:19.604Z,1.73
2022-11-24T14:53:14.946Z,1.70
2022-11-24T14:56:10.678Z,2.00
2022-11-24T14:58:59.114Z,2.10
2022-11-24T15:01:46.302Z,1.83
2022-11-24T15:07:48.617Z,3.10
2022-11-24T15:10:37.729Z,4.07
2022-11-24T15:13:25.454Z,2.07
2022-11-24T15:16:18.995Z,3.30
2022-11-24T15:19:07.934Z,2.70
2022-11-24T15:21:54.898Z,2.53
2022-11-24T15:24:53.996Z,1.77
2022-11-24T15:27:40.948Z,1.90
2022-11-24T15:30:29.193Z,1.70
2022-11-24T15:33:19.634Z,1.90
2022-11-24T15:36:07.025Z,1.60
2022-11-24T15:38:53.992Z,1.53
2022-11-24T15:41:41.863Z,1.93
2022-11-24T15:44:29.503Z,3.37
2022-11-24T15:47:16.617Z,3.17
2022-11-24T15:50:03.862Z,2.10
2022-11-24T15:52:51.132Z,3.20
2022-11-24T15:55:38.815Z,2.00
2022-11-24T15:58:25.772Z,2.10
2022-11-24T16:01:13.330Z,1.53
2022-11-24T16:04:03.670Z,1.97
2022-11-24T16:06:50.650Z,1.77
2022-11-24T16:09:37.928Z,1.23
2022-11-24T16:12:25.338Z,1.63
2022-11-24T16:15:12.341Z,2.10
2022-11-24T16:17:59.385Z,3.60
2022-11-24T16:20:46.449Z,1.30
2022-11-24T16:23:34.942Z,1.50
2022-11-24T16:26:22.067Z,1.37
2022-11-24T16:29:09.024Z,0.93
2022-11-24T16:31:56.188Z,1.00
2022-11-24T16:34:43.271Z,1.30
2022-11-24T16:37:30.422Z,1.77
2022-11-24T16:40:18.193Z,2.40
2022-11-24T16:43:05.198Z,1.83
2022-11-24T16:46:14.013Z,2.47
2022-11-24T16:49:01.211Z,1.47
2022-11-24T16:51:48.365Z,2.13
2022-11-24T16:54:35.497Z,1.37
2022-11-24T16:57:22.687Z,1.20
2022-11-24T17:00:10.442Z,1.10
2022-11-24T17:02:57.498Z,1.73
2022-11-24T17:05:44.596Z,1.07
2022-11-24T17:08:33.001Z,1.10
2022-11-24T17:11:22.872Z,1.97
2022-11-24T17:14:10.889Z,1.10
2022-11-24T17:16:57.930Z,1.43
2022-11-24T17:19:45.014Z,1.30
2022-11-24T17:22:31.984Z,1.90
2022-11-24T17:25:18.945Z,1.80
2022-11-24T17:28:05.904Z,2.10
2022-11-24T17:30:52.833Z,4.40
2022-11-24T17:33:39.780Z,4.00
2022-11-24T17:36:27.386Z,3.90
2022-11-24T17:39:14.417Z,4.43
2022-11-24T17:42:01.429Z,3.23
2022-11-24T17:44:48.380Z,3.33
2022-11-24T17:47:35.335Z,2.17
2022-11-24T17:50:25.764Z,2.47
2022-11-24T17:53:13.464Z,2.20
2022-11-24T17:56:01.505Z,2.07
2022-11-24T17:58:49.392Z,3.07
2022-11-24T18:01:36.437Z,3.60
2022-11-24T18:04:23.559Z,2.07
2022-11-24T18:07:10.765Z,2.83
2022-11-24T18:09:57.782Z,3.47
2022-11-24T18:12:44.748Z,4.27
2022-11-24T18:15:35.013Z,5.43
2022-11-24T18:18:22.212Z,4.50
2022-11-24T18:21:15.333Z,2.90
2022-11-24T18:24:02.649Z,2.37
2022-11-24T18:26:50.352Z,2.70
2022-11-24T18:29:37.370Z,2.60
2022-11-24T18:32:24.345Z,1.50
2022-11-24T18:35:11.363Z,2.53
2022-11-24T18:37:58.350Z,2.67
2022-11-24T18:40:45.957Z,1.43
2022-11-24T18:43:35.828Z,3.33
2022-11-24T18:46:22.954Z,2.63
2022-11-24T18:49:10.414Z,3.20
2022-11-24T18:51:58.084Z,3.13
2022-11-24T18:54:45.085Z,2.30
2022-11-24T18:57:32.132Z,1.10
2022-11-24T19:00:19.533Z,1.53
2022-11-24T19:03:06.729Z,3.20
2022-11-24T19:05:53.748Z,2.23
2022-11-24T19:08:40.742Z,4.00
2022-11-24T19:11:30.172Z,3.10
2022-11-24T19:14:19.110Z,2.70
2022-11-24T19:17:06.177Z,2.60
2022-11-24T19:19:53.354Z,1.83
2022-11-24T19:22:40.334Z,2.17
2022-11-24T19:25:27.305Z,1.57
2022-11-24T19:28:14.362Z,2.50
2022-11-24T19:31:05.822Z,1.10
2022-11-24T19:33:54.596Z,1.37
2022-11-24T19:36:43.155Z,1.63
2022-11-24T19:39:30.167Z,1.37
2022-11-24T19:42:17.170Z,1.70
2022-11-24T19:45:04.644Z,2.50
2022-11-24T19:47:51.602Z,2.00
2022-11-24T19:50:38.556Z,1.67
2022-11-24T19:53:25.539Z,2.90
2022-11-24T19:56:24.323Z,2.07
2022-11-24T19:59:13.479Z,2.10
2022-11-24T20:02:02.548Z,1.53
2022-11-24T20:04:49.755Z,1.60
2022-11-24T20:07:36.866Z,1.60
2022-11-24T20:10:24.429Z,1.70
2022-11-24T20:13:11.432Z,2.80
2022-11-24T20:16:05.360Z,3.93
2022-11-24T20:18:54.817Z,2.73
2022-11-24T20:21:46.081Z,1.40
2022-11-24T20:24:33.435Z,1.03
2022-11-24T20:27:20.550Z,1.10
2022-11-24T20:30:08.389Z,2.13
2022-11-24T20:32:56.508Z,1.80
2022-11-24T20:35:43.491Z,1.63
2022-11-24T20:38:30.943Z,1.50
2022-11-24T20:41:26.370Z,1.30
2022-11-24T20:44:15.357Z,1.40
2022-11-24T20:47:03.189Z,1.43
2022-11-24T20:49:50.161Z,1.10
2022-11-24T20:52:37.127Z,1.50
2022-11-24T20:55:24.213Z,1.37
2022-11-24T20:58:11.436Z,1.63
2022-11-24T21:01:05.798Z,1.00
2022-11-24T21:03:55.685Z,1.40
2022-11-24T21:06:42.789Z,1.73
2022-11-24T21:09:30.621Z,1.40
2022-11-24T21:12:17.741Z,1.33
2022-11-24T21:15:07.526Z,1.07
2022-11-24T21:17:54.521Z,1.17
2022-11-24T21:20:41.520Z,1.50
2022-11-24T21:23:28.478Z,1.50
2022-11-24T21:26:17.481Z,1.27
2022-11-24T21:29:05.451Z,1.70
2022-11-24T21:31:52.619Z,1.47
2022-11-24T21:34:39.684Z,1.40
2022-11-24T21:37:26.676Z,1.20
2022-11-24T21:40:14.955Z,1.07
2022-11-24T21:43:01.918Z,1.10
2022-11-24T21:45:49.292Z,1.37
2022-11-24T21:48:38.519Z,1.20
2022-11-24T21:51:25.521Z,1.40
2022-11-24T21:54:12.456Z,2.10
2022-11-24T21:56:59.477Z,1.70
2022-11-24T21:59:46.416Z,1.90
2022-11-24T22:02:33.627Z,2.33
2022-11-24T22:05:20.797Z,2.30
2022-11-24T22:08:07.832Z,2.00
2022-11-24T22:11:04.144Z,1.50
2022-11-24T22:13:51.695Z,1.50
2022-11-24T22:16:39.039Z,1.70
2022-11-24T22:19:26.017Z,1.63
2022-11-24T22:22:12.974Z,1.53
2022-11-24T22:24:59.997Z,1.77
2022-11-24T22:27:46.971Z,1.10
2022-11-24T22:30:33.936Z,1.60
2022-11-24T22:33:20.887Z,1.60
2022-11-24T22:36:08.215Z,1.10
2022-11-24T22:38:57.247Z,1.43
2022-11-24T22:41:44.222Z,1.20
2022-11-24T22:44:31.183Z,1.70
2022-11-24T22:47:18.170Z,1.23
2022-11-24T22:50:05.923Z,2.50
2022-11-24T22:52:53.747Z,1.80
2022-11-24T22:55:40.690Z,1.43
2022-11-24T22:58:27.680Z,1.60
2022-11-24T23:01:19.509Z,2.07
2022-11-24T23:04:06.524Z,1.57
2022-11-24T23:06:53.526Z,1.73
2022-11-24T23:09:40.597Z,1.90
2022-11-24T23:12:27.674Z,1.63
2022-11-24T23:15:14.848Z,1.70
2022-11-24T23:18:01.804Z,1.70
2022-11-24T23:20:48.761Z,1.87
2022-11-24T23:23:35.754Z,1.57
2022-11-24T23:26:35.017Z,1.80
2022-11-24T23:29:22.023Z,1.43
2022-11-24T23:32:08.970Z,1.63
2022-11-24T23:34:55.924Z,1.30
2022-11-24T23:38:06.477Z,2.20
2022-11-24T23:40:49.868Z,3.00
2022-11-24T23:43:39.056Z,2.90
2022-11-24T23:46:27.040Z,2.60
2022-11-24T23:49:13.998Z,2.47
2022-11-24T23:52:01.004Z,2.47
2022-11-24T23:54:47.952Z,2.67
2022-11-24T23:57:34.993Z,2.07
